Time;durP1;ratioP1;P1;durP2;ratioP2;P2;SDS_P1;SDS_P2;PMS_P1;PMS_P2;Temp;Humidity;BMP_temperature;BMP_pressure;BME280_temperature;BME280_humidity;BME280_pressure;Samples;Min_cycle;Max_cycle;Signal;HPM_P1;HPM_P2
2024/02/29 00:00:47;;;;;;;41.23;18.07;;;1.90;99.90;;;;;;5104565;28;20437;-67
2024/02/29 00:03:15;;;;;;;37.83;19.80;;;1.80;99.90;;;;;;5096125;28;20981;-67
2024/02/29 00:05:44;;;;;;;35.20;18.73;;;1.90;99.90;;;;;;5103875;28;20497;-68
2024/02/29 00:08:12;;;;;;;35.20;17.20;;;1.90;99.90;;;;;;5098901;28;20910;-68
2024/02/29 00:10:42;;;;;;;36.50;16.90;;;1.90;99.90;;;;;;5098276;28;20483;-69
2024/02/29 00:13:10;;;;;;;37.13;18.17;;;1.90;99.90;;;;;;5107708;28;20447;-68
2024/02/29 00:15:38;;;;;;;33.90;17.50;;;1.90;99.90;;;;;;5107269;28;20455;-68
2024/02/29 00:18:07;;;;;;;35.30;16.63;;;1.90;99.90;;;;;;5098990;28;20464;-68
2024/02/29 00:20:36;;;;;;;39.60;19.10;;;1.80;99.90;;;;;;5102309;28;20442;-68
2024/02/29 00:23:05;;;;;;;35.60;18.33;;;1.90;99.90;;;;;;5107166;28;20513;-68
2024/02/29 00:25:32;;;;;;;41.70;19.67;;;1.80;99.90;;;;;;5101309;28;20457;-69
2024/02/29 00:28:02;;;;;;;38.00;17.80;;;1.90;99.90;;;;;;5095918;28;20219;-68
2024/02/29 00:30:30;;;;;;;37.63;16.93;;;2.00;99.90;;;;;;5105972;28;20469;-68
2024/02/29 00:32:58;;;;;;;32.40;16.30;;;2.00;99.90;;;;;;5108739;27;20444;-69
2024/02/29 00:35:26;;;;;;;37.20;16.87;;;2.00;99.90;;;;;;5106048;28;20462;-70
2024/02/29 00:37:54;;;;;;;36.90;18.80;;;1.90;99.90;;;;;;5104869;28;20478;-70
2024/02/29 00:40:22;;;;;;;35.30;16.17;;;1.90;99.90;;;;;;5107491;28;20475;-70
2024/02/29 00:42:50;;;;;;;33.07;16.43;;;1.80;99.90;;;;;;5108166;28;20445;-70
2024/02/29 00:45:19;;;;;;;35.10;16.03;;;1.70;99.90;;;;;;5108181;28;20456;-70
2024/02/29 00:47:49;;;;;;;39.53;16.83;;;1.80;99.90;;;;;;5108733;28;20457;-69
2024/02/29 00:50:17;;;;;;;39.23;17.60;;;1.80;99.90;;;;;;5101361;28;20440;-69
2024/02/29 00:52:45;;;;;;;33.35;16.15;;;1.70;99.90;;;;;;5108611;28;20449;-69
2024/02/29 00:55:14;;;;;;;36.63;17.17;;;1.70;99.90;;;;;;5109786;28;20225;-69
2024/02/29 00:57:44;;;;;;;40.20;18.13;;;1.60;99.90;;;;;;5108932;28;20477;-70
2024/02/29 01:00:13;;;;;;;34.17;18.83;;;1.50;99.90;;;;;;5096381;28;20359;-71
2024/02/29 01:02:42;;;;;;;33.95;16.98;;;1.50;99.90;;;;;;5107498;28;20481;-70
2024/02/29 01:05:11;;;;;;;35.83;17.65;;;1.50;99.90;;;;;;5109431;28;20287;-71
2024/02/29 01:07:40;;;;;;;38.90;18.02;;;1.60;99.90;;;;;;5109136;28;20221;-71
2024/02/29 01:10:11;;;;;;;37.50;17.40;;;1.50;99.90;;;;;;5092896;28;20243;-71
2024/02/29 01:12:41;;;;;;;37.92;19.17;;;1.40;99.90;;;;;;5093355;28;20219;-70
2024/02/29 01:15:10;;;;;;;36.03;17.25;;;1.40;99.90;;;;;;5089155;28;20217;-70
2024/02/29 01:17:38;;;;;;;36.88;18.13;;;1.40;99.90;;;;;;5101552;28;20219;-70
2024/02/29 01:20:08;;;;;;;33.78;17.40;;;1.30;99.90;;;;;;5088412;28;20841;-69
2024/02/29 01:22:36;;;;;;;36.42;17.73;;;1.20;99.90;;;;;;5087518;28;20200;-71
2024/02/29 01:25:05;;;;;;;40.08;17.90;;;1.20;99.90;;;;;;5088139;28;20853;-70
2024/02/29 01:27:34;;;;;;;38.65;19.63;;;1.30;99.90;;;;;;5103344;28;20230;-70
2024/02/29 01:30:02;;;;;;;37.72;17.52;;;1.30;99.90;;;;;;5102619;28;20253;-70
2024/02/29 01:32:30;;;;;;;42.50;18.27;;;1.20;99.90;;;;;;5107383;28;20230;-70
2024/02/29 01:35:02;;;;;;;37.65;16.52;;;1.20;99.90;;;;;;5107150;28;20443;-70
2024/02/29 01:37:31;;;;;;;41.83;17.58;;;1.30;99.90;;;;;;5104854;28;20229;-70
2024/02/29 01:39:59;;;;;;;37.47;17.27;;;1.20;99.90;;;;;;5088975;28;20209;-69
2024/02/29 01:42:27;;;;;;;36.33;16.27;;;1.20;99.90;;;;;;5089937;28;20226;-70
2024/02/29 01:44:56;;;;;;;33.67;16.83;;;1.10;99.90;;;;;;5109005;28;20221;-69
2024/02/29 01:47:25;;;;;;;38.43;16.90;;;1.10;99.90;;;;;;5108003;28;20316;-70
2024/02/29 01:49:57;;;;;;;32.00;15.43;;;1.00;99.90;;;;;;5107048;28;20448;-70
2024/02/29 01:52:26;;;;;;;36.53;17.92;;;0.90;99.90;;;;;;5086763;28;20329;-69
2024/02/29 01:54:56;;;;;;;35.75;17.08;;;0.90;99.90;;;;;;5087698;28;20257;-68
2024/02/29 01:57:25;;;;;;;37.65;19.13;;;1.00;99.90;;;;;;5087535;28;20225;-70
2024/02/29 01:59:53;;;;;;;36.65;17.25;;;1.00;99.90;;;;;;5100688;28;20220;-70
2024/02/29 02:02:21;;;;;;;35.97;17.77;;;1.10;99.90;;;;;;5107578;28;20251;-71
2024/02/29 02:04:48;;;;;;;32.63;16.50;;;1.00;99.90;;;;;;5108013;28;20901;-70
2024/02/29 02:07:16;;;;;;;37.95;17.27;;;0.90;99.90;;;;;;5106577;28;20237;-70
2024/02/29 02:09:45;;;;;;;36.70;18.73;;;1.00;99.90;;;;;;5107548;28;20296;-71
2024/02/29 02:12:14;;;;;;;35.75;17.27;;;0.90;99.90;;;;;;5107754;28;20339;-70
2024/02/29 02:14:44;;;;;;;30.83;16.20;;;1.00;99.90;;;;;;5107593;28;20201;-71
2024/02/29 02:17:12;;;;;;;34.92;18.30;;;1.00;99.90;;;;;;5107358;28;20243;-70
2024/02/29 02:19:40;;;;;;;35.47;16.60;;;1.00;99.90;;;;;;5099791;28;20210;-71
2024/02/29 02:22:10;;;;;;;38.67;17.05;;;0.90;99.90;;;;;;5099114;28;20205;-71
2024/02/29 02:24:38;;;;;;;30.05;14.90;;;0.80;99.90;;;;;;5107362;28;20199;-70
2024/02/29 02:27:06;;;;;;;33.42;15.90;;;0.70;99.90;;;;;;5107538;28;20576;-70
2024/02/29 02:29:34;;;;;;;36.13;16.30;;;0.60;99.90;;;;;;5106470;28;20211;-71
2024/02/29 02:32:02;;;;;;;32.20;16.20;;;0.40;99.90;;;;;;5107042;28;20223;-70
2024/02/29 02:34:30;;;;;;;36.42;17.25;;;0.40;99.90;;;;;;5107431;28;20268;-70
2024/02/29 02:36:58;;;;;;;33.45;15.95;;;0.40;99.90;;;;;;5107068;28;20235;-69
2024/02/29 02:39:27;;;;;;;37.72;16.95;;;0.40;99.90;;;;;;5101223;28;20265;-70
2024/02/29 02:41:54;;;;;;;38.03;16.83;;;0.40;99.90;;;;;;5106671;28;20262;-71
2024/02/29 02:44:22;;;;;;;34.83;18.25;;;0.30;99.90;;;;;;5107434;28;20755;-70
2024/02/29 02:46:50;;;;;;;44.42;18.13;;;0.30;99.90;;;;;;5106178;28;20244;-69
2024/02/29 02:49:18;;;;;;;35.80;17.00;;;0.50;99.90;;;;;;5106210;28;20201;-69
2024/02/29 02:51:46;;;;;;;40.42;18.98;;;0.70;99.90;;;;;;5100950;28;20225;-69
2024/02/29 02:54:14;;;;;;;41.67;19.50;;;0.60;99.90;;;;;;5087348;28;20204;-69
2024/02/29 02:56:43;;;;;;;38.22;17.80;;;0.60;99.90;;;;;;5094002;28;20310;-69
2024/02/29 02:59:12;;;;;;;37.55;17.42;;;0.50;99.90;;;;;;5107138;28;20279;-68
2024/02/29 03:01:40;;;;;;;37.28;17.17;;;0.60;99.90;;;;;;5106339;28;20289;-69
2024/02/29 03:04:08;;;;;;;42.45;19.08;;;0.50;99.90;;;;;;5087757;28;20269;-69
2024/02/29 03:06:36;;;;;;;32.53;16.35;;;0.50;99.90;;;;;;5092836;28;20374;-69
2024/02/29 03:09:05;;;;;;;39.35;18.25;;;0.40;99.90;;;;;;5088757;28;20264;-69
2024/02/29 03:11:36;;;;;;;42.78;17.67;;;0.50;99.90;;;;;;5086901;28;20205;-69
2024/02/29 03:14:05;;;;;;;41.35;18.58;;;0.50;99.90;;;;;;5087369;28;20213;-69
2024/02/29 03:16:35;;;;;;;37.28;17.75;;;0.50;99.90;;;;;;5100908;28;20249;-68
2024/02/29 03:19:04;;;;;;;41.38;20.00;;;0.60;99.90;;;;;;5106567;28;20203;-69
2024/02/29 03:21:32;;;;;;;42.92;17.85;;;0.70;99.90;;;;;;5104982;28;20215;-68
2024/02/29 03:24:00;;;;;;;37.50;17.52;;;0.70;99.90;;;;;;5087318;28;20206;-70
2024/02/29 03:26:28;;;;;;;38.55;18.20;;;0.70;99.90;;;;;;5086158;28;20238;-70
2024/02/29 03:28:56;;;;;;;37.42;18.35;;;0.80;99.90;;;;;;5088329;28;20376;-70
2024/02/29 03:31:25;;;;;;;42.03;19.38;;;0.80;99.90;;;;;;5086468;28;20301;-71
2024/02/29 03:33:53;;;;;;;41.42;18.58;;;0.70;99.90;;;;;;5086398;28;20318;-71
2024/02/29 03:36:21;;;;;;;39.50;18.10;;;0.60;99.90;;;;;;5099346;28;20227;-71
2024/02/29 03:38:50;;;;;;;38.25;17.65;;;0.60;99.90;;;;;;5106382;28;20287;-70
2024/02/29 03:41:18;;;;;;;43.33;18.65;;;0.60;99.90;;;;;;5106742;28;20212;-70
2024/02/29 03:43:46;;;;;;;37.40;17.15;;;0.50;99.90;;;;;;5099147;28;20618;-70
2024/02/29 03:46:14;;;;;;;41.22;18.15;;;0.50;99.90;;;;;;5090380;28;20779;-70
2024/02/29 03:48:43;;;;;;;37.00;16.95;;;0.50;99.90;;;;;;5090192;28;20209;-70
2024/02/29 03:51:11;;;;;;;39.45;18.67;;;0.70;99.90;;;;;;5089988;28;20214;-70
2024/02/29 03:53:39;;;;;;;40.55;18.58;;;0.70;99.90;;;;;;5089973;28;20234;-70
2024/02/29 03:56:07;;;;;;;40.28;19.92;;;0.70;99.90;;;;;;5109527;28;20622;-70
2024/02/29 03:58:35;;;;;;;33.22;16.85;;;0.70;99.90;;;;;;5094528;28;20203;-70
2024/02/29 04:01:05;;;;;;;43.95;20.63;;;0.60;99.90;;;;;;5099555;28;20282;-70
2024/02/29 04:03:33;;;;;;;39.78;18.00;;;0.50;99.90;;;;;;5109753;28;20201;-70
2024/02/29 04:06:02;;;;;;;40.35;17.92;;;0.40;99.90;;;;;;5109878;28;20731;-69
2024/02/29 04:08:31;;;;;;;41.22;18.67;;;0.30;99.90;;;;;;5104888;28;20274;-69
2024/02/29 04:10:59;;;;;;;44.63;17.45;;;0.50;99.90;;;;;;5097438;28;20291;-70
2024/02/29 04:13:27;;;;;;;36.42;16.58;;;0.40;99.90;;;;;;5089904;28;20274;-70
2024/02/29 04:15:55;;;;;;;37.42;17.65;;;0.50;99.90;;;;;;5089298;28;20328;-71
2024/02/29 04:18:23;;;;;;;35.70;17.35;;;0.40;99.90;;;;;;5089397;28;20764;-70
2024/02/29 04:20:51;;;;;;;35.63;17.73;;;0.40;99.90;;;;;;5090721;28;20210;-69
2024/02/29 04:23:20;;;;;;;40.00;17.02;;;0.50;99.90;;;;;;5089548;28;20213;-70
2024/02/29 04:25:48;;;;;;;41.05;17.35;;;0.50;99.90;;;;;;5104193;28;20226;-68
2024/02/29 04:28:17;;;;;;;34.65;16.52;;;0.50;99.90;;;;;;5108723;28;20747;-68
2024/02/29 04:30:45;;;;;;;38.03;17.35;;;0.40;99.90;;;;;;5108053;28;20681;-70
2024/02/29 04:33:13;;;;;;;37.65;17.75;;;0.30;99.90;;;;;;5108784;28;20228;-69
2024/02/29 04:35:41;;;;;;;37.95;17.90;;;0.30;99.90;;;;;;5103536;28;20260;-70
2024/02/29 04:38:09;;;;;;;38.50;17.90;;;0.40;99.90;;;;;;5092975;28;20214;-70
2024/02/29 04:40:38;;;;;;;36.13;19.58;;;0.30;99.90;;;;;;5109636;28;20209;-70
2024/02/29 04:43:09;;;;;;;38.50;16.55;;;0.40;99.90;;;;;;5109404;28;20213;-70
2024/02/29 04:45:37;;;;;;;37.88;17.80;;;0.20;99.90;;;;;;5109658;28;20201;-70
2024/02/29 04:48:05;;;;;;;37.70;18.23;;;0.10;99.90;;;;;;5108887;28;20244;-70
2024/02/29 04:50:33;;;;;;;38.35;17.38;;;0.10;99.90;;;;;;5109169;28;20287;-69
2024/02/29 04:53:01;;;;;;;36.08;18.17;;;0.20;99.90;;;;;;5099661;28;20221;-70
2024/02/29 04:55:30;;;;;;;36.78;17.33;;;0.20;99.90;;;;;;5087875;28;20216;-71
2024/02/29 04:57:59;;;;;;;37.25;17.73;;;0.20;99.90;;;;;;5088864;28;20321;-70
2024/02/29 05:00:27;;;;;;;37.63;18.13;;;0.10;99.90;;;;;;5089098;28;20215;-70
2024/02/29 05:02:55;;;;;;;41.03;17.90;;;0.10;99.90;;;;;;5088380;28;20220;-71
2024/02/29 05:05:24;;;;;;;38.60;17.70;;;0.10;99.90;;;;;;5088477;28;20784;-70
2024/02/29 05:07:52;;;;;;;44.08;19.77;;;0.10;99.90;;;;;;5091658;28;20252;-69
2024/02/29 05:10:19;;;;;;;42.78;18.77;;;0.10;99.90;;;;;;5088670;28;20211;-69
2024/02/29 05:12:50;;;;;;;42.72;18.05;;;0.10;99.90;;;;;;5088096;28;20221;-68
2024/02/29 05:15:20;;;;;;;40.25;19.70;;;0.10;99.90;;;;;;5088772;28;20231;-69
2024/02/29 05:17:48;;;;;;;38.28;17.60;;;0.30;99.90;;;;;;5088308;28;20323;-69
2024/02/29 05:20:17;;;;;;;42.22;18.40;;;0.20;99.90;;;;;;5094145;28;20300;-69
2024/02/29 05:22:45;;;;;;;44.97;20.35;;;0.20;99.90;;;;;;5093692;28;20200;-69
2024/02/29 05:25:13;;;;;;;41.50;19.27;;;0.20;99.90;;;;;;5088467;28;20232;-69
2024/02/29 05:27:42;;;;;;;52.58;20.25;;;0.40;99.90;;;;;;5088116;28;20226;-69
2024/02/29 05:30:10;;;;;;;49.92;19.65;;;0.50;99.90;;;;;;5105897;28;20291;-69
2024/02/29 05:32:40;;;;;;;48.05;20.48;;;0.50;99.90;;;;;;5055725;28;20203;-68
2024/02/29 05:35:08;;;;;;;45.00;20.58;;;0.40;99.90;;;;;;5106638;28;20200;-68
2024/02/29 05:37:36;;;;;;;45.80;21.05;;;0.40;99.90;;;;;;5088834;28;20225;-68
2024/02/29 05:40:07;;;;;;;47.05;21.48;;;0.40;99.90;;;;;;5098134;28;20590;-68
2024/02/29 05:42:35;;;;;;;44.20;20.77;;;0.30;99.90;;;;;;5106590;28;20205;-69
2024/02/29 05:45:06;;;;;;;50.83;19.50;;;0.20;99.90;;;;;;5108565;28;20662;-70
2024/02/29 05:47:34;;;;;;;49.13;21.20;;;0.10;99.90;;;;;;5108290;28;20319;-69
2024/02/29 05:50:03;;;;;;;42.45;19.70;;;0.10;99.90;;;;;;5099007;28;20686;-67
2024/02/29 05:52:31;;;;;;;43.00;19.55;;;0.00;99.90;;;;;;5087888;28;20204;-67
2024/02/29 05:54:59;;;;;;;54.10;19.67;;;0.00;99.90;;;;;;5105542;28;20303;-68
2024/02/29 05:57:30;;;;;;;41.35;18.98;;;0.10;99.90;;;;;;5087891;28;20220;-69
2024/02/29 06:00:00;;;;;;;40.92;18.85;;;0.20;99.90;;;;;;5087395;28;20205;-69
2024/02/29 06:02:28;;;;;;;39.72;17.13;;;0.20;99.90;;;;;;5091779;28;20295;-67
2024/02/29 06:04:56;;;;;;;39.17;17.50;;;0.20;99.90;;;;;;5106822;28;20215;-68
2024/02/29 06:07:25;;;;;;;38.20;17.95;;;0.20;99.90;;;;;;5103426;28;20729;-69
2024/02/29 06:09:53;;;;;;;42.10;17.35;;;0.10;99.90;;;;;;5087738;28;20247;-68
2024/02/29 06:12:21;;;;;;;36.78;17.42;;;0.10;99.90;;;;;;5087320;28;20211;-68
2024/02/29 06:14:50;;;;;;;41.35;17.60;;;0.10;99.90;;;;;;5087853;28;20239;-67
2024/02/29 06:17:19;;;;;;;39.65;17.75;;;0.20;99.90;;;;;;5095944;28;20225;-67
2024/02/29 06:19:47;;;;;;;41.20;17.50;;;0.10;99.90;;;;;;5091910;28;20268;-68
2024/02/29 06:22:15;;;;;;;41.30;18.83;;;0.10;99.90;;;;;;5105101;28;20664;-68
2024/02/29 06:24:45;;;;;;;40.17;17.65;;;0.10;99.90;;;;;;5106486;28;20219;-69
2024/02/29 06:27:13;;;;;;;40.83;18.95;;;0.10;99.90;;;;;;5106387;28;20737;-69
2024/02/29 06:29:41;;;;;;;45.10;18.77;;;0.20;99.90;;;;;;5107595;28;20207;-68
2024/02/29 06:32:09;;;;;;;45.97;19.13;;;0.00;99.90;;;;;;5089125;28;20205;-68
2024/02/29 06:34:37;;;;;;;46.60;19.13;;;0.10;99.90;;;;;;5093478;28;20319;-68
2024/02/29 06:37:06;;;;;;;42.45;19.65;;;0.10;99.90;;;;;;5087283;28;20233;-68
2024/02/29 06:39:34;;;;;;;39.63;18.65;;;0.00;99.90;;;;;;5101435;28;20943;-68
2024/02/29 06:42:04;;;;;;;36.97;17.67;;;0.00;99.90;;;;;;5107452;28;20191;-68
2024/02/29 06:44:32;;;;;;;37.28;18.05;;;0.00;99.90;;;;;;5102690;28;20272;-68
2024/02/29 06:47:00;;;;;;;36.88;19.85;;;0.20;99.90;;;;;;5087413;28;20278;-69
2024/02/29 06:49:28;;;;;;;37.97;17.98;;;0.30;99.90;;;;;;5087225;28;20711;-69
2024/02/29 06:51:56;;;;;;;37.95;18.15;;;0.40;99.90;;;;;;5086910;28;20201;-68
2024/02/29 06:54:24;;;;;;;43.33;21.58;;;0.40;99.90;;;;;;5087482;28;20324;-68
2024/02/29 06:56:52;;;;;;;41.78;18.40;;;0.40;99.90;;;;;;5107199;28;20219;-69
2024/02/29 06:59:21;;;;;;;44.13;19.15;;;0.50;99.90;;;;;;5095615;28;20279;-68
2024/02/29 07:01:49;;;;;;;38.80;17.88;;;0.60;99.90;;;;;;5086777;28;20632;-68
2024/02/29 07:04:17;;;;;;;41.75;18.60;;;0.80;99.90;;;;;;5087022;28;20708;-68
2024/02/29 07:06:46;;;;;;;41.53;18.05;;;0.90;99.90;;;;;;5086910;28;20226;-68
2024/02/29 07:09:14;;;;;;;40.63;18.80;;;0.90;99.90;;;;;;5087044;28;20263;-68
2024/02/29 07:11:42;;;;;;;36.65;17.13;;;1.00;99.90;;;;;;5097847;28;20708;-68
2024/02/29 07:14:10;;;;;;;41.92;18.65;;;1.20;99.90;;;;;;5088728;28;20282;-68
2024/02/29 07:16:40;;;;;;;47.07;21.30;;;1.20;99.90;;;;;;5086680;28;20259;-69
2024/02/29 07:19:08;;;;;;;40.35;19.42;;;1.20;99.90;;;;;;5087528;28;20499;-69
2024/02/29 07:21:36;;;;;;;41.63;20.00;;;1.30;99.90;;;;;;5091151;28;20207;-69
2024/02/29 07:24:05;;;;;;;39.22;17.52;;;1.40;99.90;;;;;;5091192;28;20212;-69
2024/02/29 07:26:33;;;;;;;38.65;20.45;;;1.50;99.90;;;;;;5103578;28;20244;-68
2024/02/29 07:29:04;;;;;;;37.83;19.10;;;1.60;99.90;;;;;;5111722;28;20267;-68
2024/02/29 07:31:32;;;;;;;44.10;20.80;;;1.60;99.90;;;;;;5111549;28;20559;-68
2024/02/29 07:34:01;;;;;;;42.42;20.25;;;1.50;99.90;;;;;;5112422;28;20292;-68
2024/02/29 07:36:29;;;;;;;37.33;19.75;;;1.60;99.90;;;;;;5112284;28;20235;-68
2024/02/29 07:38:57;;;;;;;44.93;19.67;;;1.70;99.90;;;;;;5111429;28;20244;-68
2024/02/29 07:41:25;;;;;;;40.10;19.80;;;1.80;99.90;;;;;;5111044;28;20544;-68
2024/02/29 07:43:53;;;;;;;36.70;19.13;;;2.00;99.90;;;;;;5095049;28;20519;-68
2024/02/29 07:46:21;;;;;;;38.63;18.97;;;2.00;99.90;;;;;;5105761;28;20465;-69
2024/02/29 07:48:49;;;;;;;39.43;19.30;;;2.00;99.90;;;;;;5110799;28;20842;-69
2024/02/29 07:51:19;;;;;;;41.20;21.30;;;2.10;99.90;;;;;;5110634;28;20445;-69
2024/02/29 07:53:47;;;;;;;39.10;21.23;;;2.20;99.90;;;;;;5110676;28;20524;-68
2024/02/29 07:56:15;;;;;;;43.20;19.33;;;2.40;99.90;;;;;;5100157;28;20530;-69
2024/02/29 07:58:43;;;;;;;38.93;21.63;;;2.50;99.90;;;;;;5098164;28;20507;-69
2024/02/29 08:01:11;;;;;;;44.43;20.00;;;2.60;99.90;;;;;;5090355;28;20446;-68
2024/02/29 08:03:39;;;;;;;42.37;22.37;;;2.70;99.90;;;;;;5090483;28;20446;-69
2024/02/29 08:06:07;;;;;;;45.00;21.80;;;2.80;99.90;;;;;;5090335;28;20456;-68
2024/02/29 08:08:37;;;;;;;39.43;21.70;;;2.90;99.90;;;;;;5093767;28;20495;-69
2024/02/29 08:11:05;;;;;;;41.50;21.23;;;3.10;99.90;;;;;;5089842;28;21015;-69
2024/02/29 08:13:34;;;;;;;40.00;19.97;;;3.30;99.90;;;;;;5098591;28;20447;-69
2024/02/29 08:16:04;;;;;;;44.33;21.20;;;3.40;99.90;;;;;;5110683;28;20486;-69
2024/02/29 08:18:33;;;;;;;41.67;22.20;;;3.60;99.90;;;;;;5110180;28;20444;-69
2024/02/29 08:21:03;;;;;;;38.90;21.90;;;3.80;99.90;;;;;;5109980;28;20430;-67
2024/02/29 08:23:31;;;;;;;41.63;21.90;;;4.00;99.90;;;;;;5102668;28;20438;-69
2024/02/29 08:26:01;;;;;;;44.37;22.00;;;4.10;99.90;;;;;;5110462;28;21077;-69
2024/02/29 08:28:28;;;;;;;42.13;22.53;;;4.20;99.90;;;;;;5109927;28;20463;-68
2024/02/29 08:30:56;;;;;;;38.67;19.50;;;4.40;99.90;;;;;;5109920;28;20445;-67
2024/02/29 08:33:24;;;;;;;35.50;20.13;;;4.50;99.90;;;;;;5102282;28;20537;-69
2024/02/29 08:35:53;;;;;;;36.83;19.90;;;4.70;99.90;;;;;;5100116;28;20510;-69
2024/02/29 08:38:20;;;;;;;37.10;20.57;;;4.90;99.90;;;;;;5096696;28;20538;-68
2024/02/29 08:40:49;;;;;;;40.57;21.37;;;5.00;99.90;;;;;;5109826;28;20513;-69
2024/02/29 08:43:19;;;;;;;41.87;20.80;;;5.10;99.90;;;;;;5109147;28;20430;-68
2024/02/29 08:45:47;;;;;;;40.33;20.27;;;5.30;99.90;;;;;;5107726;28;20441;-68
2024/02/29 08:48:15;;;;;;;35.60;19.67;;;5.40;99.90;;;;;;5108805;28;20482;-67
2024/02/29 08:50:43;;;;;;;35.80;19.93;;;5.60;99.90;;;;;;5103335;28;20431;-68
2024/02/29 08:53:11;;;;;;;36.07;19.20;;;5.70;99.90;;;;;;5101331;28;20535;-69
2024/02/29 08:55:40;;;;;;;39.27;19.83;;;5.90;99.90;;;;;;5101791;28;20475;-69
2024/02/29 08:58:10;;;;;;;36.00;18.00;;;5.90;99.90;;;;;;5108167;28;20473;-69
2024/02/29 09:00:39;;;;;;;35.93;18.10;;;6.10;99.90;;;;;;5091933;28;20525;-68
2024/02/29 09:03:09;;;;;;;35.93;18.90;;;6.40;99.90;;;;;;5108214;28;20528;-69
2024/02/29 09:05:36;;;;;;;36.57;19.50;;;6.60;99.90;;;;;;5110280;28;20476;-69
2024/02/29 09:08:05;;;;;;;39.63;19.73;;;6.80;99.90;;;;;;5109856;28;20472;-68
2024/02/29 09:10:33;;;;;;;34.80;20.30;;;6.90;99.90;;;;;;5103319;28;20433;-68
2024/02/29 09:13:01;;;;;;;40.83;18.83;;;7.10;99.90;;;;;;5107163;28;20455;-68
2024/02/29 09:15:44;;;;;;;34.90;21.73;;;7.30;99.90;;;;;;5093878;28;20845;-69
2024/02/29 09:18:12;;;;;;;30.60;17.13;;;7.50;99.90;;;;;;5089191;28;21234;-69
2024/02/29 09:20:40;;;;;;;32.90;19.13;;;7.80;99.90;;;;;;5089490;28;20533;-68
2024/02/29 09:23:08;;;;;;;36.57;18.97;;;8.00;99.90;;;;;;5097835;28;20952;-68
2024/02/29 09:25:36;;;;;;;34.20;19.33;;;8.20;99.90;;;;;;5090166;28;20445;-69
2024/02/29 09:28:04;;;;;;;38.40;20.83;;;8.50;99.90;;;;;;5091497;28;21171;-69
2024/02/29 09:30:33;;;;;;;37.73;20.70;;;8.80;99.90;;;;;;5109306;28;21208;-69
2024/02/29 09:33:03;;;;;;;33.00;19.93;;;9.00;99.90;;;;;;5109212;28;20961;-69
2024/02/29 09:35:30;;;;;;;37.07;20.83;;;9.30;99.90;;;;;;5109171;28;21298;-69
2024/02/29 09:37:58;;;;;;;32.93;19.27;;;9.40;99.90;;;;;;5108832;28;20584;-69
2024/02/29 09:40:26;;;;;;;32.30;18.33;;;9.70;99.90;;;;;;5108980;28;20569;-69
2024/02/29 09:43:01;;;;;;;32.33;19.97;;;10.00;99.90;;;;;;5107702;28;20480;-69
2024/02/29 09:45:30;;;;;;;34.30;19.33;;;10.30;99.90;;;;;;5101034;28;20473;-69
2024/02/29 09:47:59;;;;;;;32.67;17.83;;;10.50;99.90;;;;;;5101286;28;20456;-70
2024/02/29 09:50:28;;;;;;;31.27;19.10;;;10.70;99.90;;;;;;5088687;28;20473;-69
2024/02/29 09:52:58;;;;;;;31.10;18.70;;;11.00;99.90;;;;;;5088781;28;20448;-69
2024/02/29 09:55:27;;;;;;;33.07;19.47;;;11.30;99.90;;;;;;5096633;28;20481;-69
2024/02/29 09:57:58;;;;;;;31.00;18.47;;;11.60;99.90;;;;;;5088606;28;21234;-69
2024/02/29 10:00:26;;;;;;;34.03;19.27;;;11.90;99.80;;;;;;5096238;28;20454;-68
2024/02/29 10:02:56;;;;;;;34.37;17.97;;;12.30;98.20;;;;;;5088337;28;20457;-68
2024/02/29 10:05:24;;;;;;;30.27;17.57;;;12.50;96.20;;;;;;5092363;28;20491;-69
2024/02/29 10:07:54;;;;;;;31.47;19.57;;;12.80;95.00;;;;;;5087910;28;20466;-66
2024/02/29 10:10:21;;;;;;;31.93;19.20;;;12.90;92.60;;;;;;5088486;28;20550;-67
2024/02/29 10:12:54;;;;;;;32.80;19.93;;;12.80;92.30;;;;;;5102831;28;21195;-67
2024/02/29 10:15:26;;;;;;;33.10;19.17;;;12.80;92.30;;;;;;5105666;28;20494;-68
2024/02/29 10:17:56;;;;;;;31.57;21.13;;;12.80;90.80;;;;;;5102381;28;20492;-68
2024/02/29 10:20:26;;;;;;;31.57;18.90;;;12.90;92.10;;;;;;5108344;28;20541;-68
2024/02/29 10:22:55;;;;;;;30.27;18.33;;;13.10;90.60;;;;;;5108503;28;20458;-67
2024/02/29 10:25:23;;;;;;;32.60;18.87;;;13.20;88.40;;;;;;5108340;28;20445;-68
2024/02/29 10:27:51;;;;;;;30.93;19.93;;;13.30;89.10;;;;;;5107687;28;20461;-67
2024/02/29 10:30:20;;;;;;;30.20;19.90;;;13.60;87.90;;;;;;5106140;28;20464;-68
2024/02/29 10:32:47;;;;;;;33.30;20.20;;;13.90;86.80;;;;;;5087800;28;20442;-68
2024/02/29 10:35:20;;;;;;;30.57;20.10;;;14.10;84.90;;;;;;5088043;28;20451;-69
2024/02/29 10:37:49;;;;;;;31.50;18.97;;;14.30;83.10;;;;;;5088109;28;20812;-68
2024/02/29 10:40:18;;;;;;;31.50;20.30;;;14.30;84.20;;;;;;5087745;28;20942;-68
2024/02/29 10:42:51;;;;;;;30.80;18.67;;;14.60;80.80;;;;;;5087569;28;20441;-67
2024/02/29 10:45:19;;;;;;;32.90;20.93;;;15.00;80.40;;;;;;5094385;28;20547;-69
2024/02/29 10:47:56;;;;;;;33.17;19.80;;;15.20;78.90;;;;;;5093330;28;21014;-66
2024/02/29 10:50:26;;;;;;;27.50;18.27;;;15.60;76.90;;;;;;5087755;28;20927;-68
2024/02/29 10:53:13;;;;;;;29.27;18.57;;;15.90;74.80;;;;;;5087406;28;20454;-68
2024/02/29 10:55:50;;;;;;;31.00;17.93;;;16.10;74.10;;;;;;5090374;28;20944;-69
2024/02/29 10:58:24;;;;;;;26.90;18.17;;;16.20;72.60;;;;;;5086910;28;20469;-68
2024/02/29 11:00:52;;;;;;;27.90;17.73;;;16.50;70.50;;;;;;5096283;28;20815;-69
2024/02/29 11:03:22;;;;;;;29.40;18.30;;;16.70;71.10;;;;;;5106724;28;20502;-69
2024/02/29 11:05:50;;;;;;;31.87;19.37;;;16.50;69.60;;;;;;5101004;28;21273;-67
2024/02/29 11:08:19;;;;;;;30.90;19.50;;;16.70;69.80;;;;;;5086187;28;20458;-68
2024/02/29 11:10:49;;;;;;;28.27;18.10;;;17.20;66.60;;;;;;5086803;28;20535;-69
2024/02/29 11:13:21;;;;;;;23.60;15.90;;;17.50;67.40;;;;;;5086752;28;20474;-68
2024/02/29 11:15:50;;;;;;;27.03;17.10;;;17.80;64.60;;;;;;5086524;28;20454;-69
2024/02/29 11:18:23;;;;;;;23.17;15.03;;;18.00;63.30;;;;;;5104153;28;20922;-70
2024/02/29 11:21:02;;;;;;;25.07;16.60;;;18.20;62.10;;;;;;5107048;28;20958;-69
2024/02/29 11:23:34;;;;;;;27.40;16.70;;;18.50;60.30;;;;;;5107286;28;20522;-68
2024/02/29 11:26:06;;;;;;;26.17;17.60;;;18.50;60.00;;;;;;5107518;28;20460;-69
2024/02/29 11:28:38;;;;;;;23.20;14.67;;;18.40;59.60;;;;;;5107657;28;20449;-69
2024/02/29 11:31:14;;;;;;;23.37;15.27;;;18.20;59.60;;;;;;5107902;28;20441;-69
2024/02/29 11:33:43;;;;;;;24.97;16.03;;;18.50;60.00;;;;;;5107336;28;20479;-68
2024/02/29 11:36:11;;;;;;;25.10;17.00;;;18.50;59.20;;;;;;5107322;28;20507;-70
2024/02/29 11:38:40;;;;;;;25.20;17.33;;;18.80;58.20;;;;;;5106682;28;20498;-69
2024/02/29 11:41:22;;;;;;;23.23;15.83;;;19.10;58.60;;;;;;5105844;28;20944;-69
2024/02/29 11:43:51;;;;;;;19.97;12.83;;;19.50;56.20;;;;;;5106948;28;20441;-69
2024/02/29 11:46:19;;;;;;;22.60;13.80;;;19.80;56.00;;;;;;5106614;28;20544;-79
2024/02/29 11:48:50;;;;;;;24.13;16.13;;;20.30;53.40;;;;;;5108592;28;20456;-69
2024/02/29 11:51:20;;;;;;;22.30;14.63;;;20.20;52.90;;;;;;5103338;28;20442;-72
2024/02/29 11:53:49;;;;;;;22.27;14.70;;;20.40;53.20;;;;;;5104173;28;20513;-70
2024/02/29 11:56:17;;;;;;;22.57;13.47;;;20.60;52.10;;;;;;5107841;28;20536;-71
2024/02/29 11:58:48;;;;;;;23.23;15.07;;;21.20;51.20;;;;;;5101983;28;20454;-69
2024/02/29 12:01:16;;;;;;;23.87;16.03;;;21.40;50.40;;;;;;5099183;28;20477;-70
2024/02/29 12:03:45;;;;;;;22.77;15.80;;;21.30;51.50;;;;;;5105695;28;20445;-69
2024/02/29 12:06:13;;;;;;;27.30;17.37;;;21.20;52.10;;;;;;5099549;28;21260;-70
2024/02/29 12:08:41;;;;;;;25.00;16.87;;;21.50;50.30;;;;;;5109888;28;20477;-70
2024/02/29 12:11:09;;;;;;;23.83;15.83;;;21.70;50.80;;;;;;5109215;28;20534;-69
2024/02/29 12:13:38;;;;;;;24.27;17.03;;;21.70;49.20;;;;;;5104035;28;20445;-71
2024/02/29 12:16:08;;;;;;;24.27;17.30;;;21.80;50.10;;;;;;5111137;28;20433;-70
2024/02/29 12:18:36;;;;;;;27.17;18.57;;;22.30;48.50;;;;;;5113452;28;20881;-71
2024/02/29 12:21:05;;;;;;;24.00;17.03;;;22.50;48.80;;;;;;5111783;28;20442;-70
2024/02/29 12:23:33;;;;;;;26.30;17.13;;;22.50;48.30;;;;;;5107169;28;20536;-71
2024/02/29 12:26:09;;;;;;;24.83;17.27;;;22.40;49.10;;;;;;5104303;28;20525;-70
2024/02/29 12:28:38;;;;;;;24.23;17.77;;;22.60;48.60;;;;;;5109281;28;20490;-70
2024/02/29 12:31:09;;;;;;;28.50;20.17;;;23.10;47.60;;;;;;5108346;28;20460;-71
2024/02/29 12:33:38;;;;;;;28.07;18.63;;;22.90;45.20;;;;;;5100245;28;20525;-69
2024/02/29 12:36:07;;;;;;;26.30;17.93;;;22.40;47.20;;;;;;5110356;28;20506;-69
2024/02/29 12:38:35;;;;;;;21.40;15.40;;;22.70;46.90;;;;;;5102820;28;20469;-70
2024/02/29 12:41:03;;;;;;;24.67;16.80;;;22.60;48.30;;;;;;5106320;28;20461;-69
2024/02/29 12:43:31;;;;;;;25.50;18.60;;;22.80;47.40;;;;;;5105779;28;20447;-69